Time;durP1;ratioP1;P1;durP2;ratioP2;P2;SDS_P1;SDS_P2;PMS_P1;PMS_P2;Temp;Humidity;BMP_temperature;BMP_pressure;BME280_temperature;BME280_humidity;BME280_pressure;Samples;Min_cycle;Max_cycle;Signal;HPM_P1;HPM_P2
2022/01/23 00:00:28;;;;;;;8.67;5.60;;;5.70;1.00;;;;;;4997158;28;20220;-60
2022/01/23 00:03:01;;;;;;;8.80;5.67;;;5.70;1.00;;;;;;4997041;28;20235;-61
2022/01/23 00:05:35;;;;;;;7.03;5.43;;;5.70;1.00;;;;;;4998322;28;20838;-60
2022/01/23 00:08:03;;;;;;;8.73;5.40;;;5.70;1.00;;;;;;4984649;28;20264;-60
2022/01/23 00:10:30;;;;;;;9.40;6.20;;;5.70;1.00;;;;;;4995183;28;20730;-60
2022/01/23 00:18:39;;;;;;;16.07;7.57;;;5.70;1.00;;;;;;4984015;28;20668;-61
2022/01/23 00:21:06;;;;;;;12.47;7.20;;;5.70;1.00;;;;;;4986710;28;20333;-60
2022/01/23 00:30:19;;;;;;;11.73;7.20;;;5.70;1.00;;;;;;4967248;28;20208;-61
2022/01/23 00:31:52;;;;;;;10.87;7.90;;;5.70;1.00;;;;;;4986774;28;20202;-61
2022/01/23 00:34:19;;;;;;;12.30;8.17;;;5.70;1.00;;;;;;4980829;28;20202;-61
2022/01/23 00:36:46;;;;;;;15.80;8.63;;;5.70;1.00;;;;;;4998833;28;20201;-61
2022/01/23 00:39:14;;;;;;;15.73;8.53;;;5.70;1.00;;;;;;4980562;28;20707;-61
2022/01/23 00:41:41;;;;;;;21.37;12.90;;;5.70;1.00;;;;;;4967028;28;20215;-61
2022/01/23 00:44:08;;;;;;;16.43;9.43;;;5.70;1.00;;;;;;4996089;28;20230;-61
2022/01/23 00:46:38;;;;;;;14.33;9.40;;;5.70;1.00;;;;;;4984066;28;20914;-62
2022/01/23 00:51:37;;;;;;;16.33;9.60;;;5.60;1.00;;;;;;4989021;28;20196;-62
2022/01/23 00:54:07;;;;;;;15.93;9.90;;;5.60;1.00;;;;;;4968407;28;20746;-63
2022/01/23 00:56:35;;;;;;;16.33;10.50;;;5.60;12.50;;;;;;4988886;28;20201;-62
2022/01/23 00:59:09;;;;;;;15.53;10.80;;;5.60;33.40;;;;;;4999310;28;20214;-62
2022/01/23 01:01:36;;;;;;;14.87;10.60;;;5.60;79.50;;;;;;4996269;28;20988;-62
2022/01/23 01:04:06;;;;;;;12.20;9.63;;;5.60;93.30;;;;;;4982100;28;20205;-62
2022/01/23 01:06:35;;;;;;;14.70;9.47;;;5.60;99.90;;;;;;4966388;28;20213;-62
2022/01/23 01:09:07;;;;;;;13.10;11.10;;;5.60;99.90;;;;;;4970894;28;20375;-62
2022/01/23 01:14:23;;;;;;;14.77;9.87;;;5.60;99.90;;;;;;4983582;28;20241;-62
2022/01/23 01:17:01;;;;;;;14.47;10.43;;;5.60;99.90;;;;;;4987985;28;20676;-62
2022/01/23 01:36:20;;;;;;;17.23;10.10;;;5.70;1.00;;;;;;4991658;28;20200;-64
2022/01/23 01:38:46;;;;;;;16.60;9.33;;;5.80;1.00;;;;;;5001297;28;20255;-63
2022/01/23 01:41:19;;;;;;;14.00;9.00;;;5.70;1.00;;;;;;5002252;28;20201;-63
2022/01/23 01:43:48;;;;;;;11.53;8.93;;;5.70;1.00;;;;;;4985459;28;20931;-64
2022/01/23 01:46:19;;;;;;;10.93;9.33;;;5.80;1.00;;;;;;4989910;28;20205;-64
2022/01/23 01:48:55;;;;;;;13.80;8.67;;;5.80;1.00;;;;;;4989865;28;20254;-64
2022/01/23 01:51:23;;;;;;;15.37;9.07;;;5.80;1.00;;;;;;4974143;28;20224;-63
2022/01/23 01:54:16;;;;;;;12.87;9.10;;;5.80;1.00;;;;;;5002496;28;20276;-63
2022/01/23 01:56:52;;;;;;;13.57;9.73;;;5.80;1.00;;;;;;4991536;28;20207;-65
2022/01/23 01:59:45;;;;;;;11.93;9.20;;;5.80;1.00;;;;;;4997613;28;20208;-64
2022/01/23 02:03:06;;;;;;;13.30;10.00;;;5.70;1.00;;;;;;4973486;28;20208;-63
2022/01/23 02:08:31;;;;;;;24.27;12.33;;;5.70;1.00;;;;;;4987960;28;20241;-63
2022/01/23 02:11:18;;;;;;;17.97;12.10;;;5.90;7.30;;;;;;4990354;28;20219;-64
2022/01/23 02:14:10;;;;;;;14.57;11.67;;;6.20;25.70;;;;;;5004824;28;20244;-66
2022/01/23 02:22:48;;;;;;;13.43;9.07;;;6.20;99.90;;;;;;4988491;28;20679;-63
2022/01/23 02:50:45;;;;;;;15.97;10.73;;;6.00;1.00;;;;;;5008332;28;20200;-66
2022/01/23 02:56:18;;;;;;;14.17;9.97;;;6.40;44.60;;;;;;5007059;28;20287;-64
2022/01/23 02:58:56;;;;;;;11.80;9.77;;;6.90;1.00;;;;;;4993461;28;20208;-65
2022/01/23 03:01:28;;;;;;;10.03;6.30;;;6.70;99.90;;;;;;5009465;28;20687;-65
2022/01/23 03:04:21;;;;;;;8.77;6.57;;;6.40;99.90;;;;;;5010821;28;20275;-65
2022/01/23 03:07:13;;;;;;;10.90;7.90;;;6.20;99.90;;;;;;4993298;28;20738;-65
2022/01/23 03:15:45;;;;;;;12.23;7.67;;;5.90;99.90;;;;;;4992520;28;20299;-64
2022/01/23 03:26:53;;;;;;;13.90;8.13;;;5.90;1.00;;;;;;4988671;28;20239;-63
2022/01/23 03:29:29;;;;;;;11.30;7.63;;;5.80;1.00;;;;;;5007669;28;20204;-64
2022/01/23 03:32:11;;;;;;;11.67;7.63;;;5.90;1.00;;;;;;4990325;28;20252;-64
2022/01/23 03:34:38;;;;;;;10.77;7.90;;;5.80;1.00;;;;;;4989906;28;20717;-65
2022/01/23 03:37:08;;;;;;;11.93;7.40;;;5.80;1.00;;;;;;4990962;28;20700;-63
2022/01/23 03:39:35;;;;;;;10.60;7.40;;;5.70;1.00;;;;;;5007186;28;20237;-64
2022/01/23 03:42:04;;;;;;;10.40;8.50;;;5.70;1.00;;;;;;4989564;28;20240;-64
2022/01/23 03:44:39;;;;;;;9.67;8.07;;;5.70;1.00;;;;;;4993941;28;20201;-64
2022/01/23 03:50:14;;;;;;;12.33;8.37;;;5.80;1.00;;;;;;4894361;29;20693;-64
2022/01/23 03:52:45;;;;;;;14.67;9.60;;;5.80;1.00;;;;;;4980289;28;20568;-65
2022/01/23 03:55:15;;;;;;;13.70;10.47;;;5.80;1.00;;;;;;4992609;28;20232;-65
2022/01/23 03:57:43;;;;;;;12.13;9.27;;;5.80;1.00;;;;;;4991494;28;20548;-65
2022/01/23 04:00:16;;;;;;;13.70;9.87;;;5.80;1.00;;;;;;4976744;28;20198;-64
2022/01/23 04:02:44;;;;;;;13.27;9.57;;;5.70;1.00;;;;;;5008433;28;20284;-65
2022/01/23 04:05:23;;;;;;;13.13;9.63;;;5.70;1.00;;;;;;5007151;28;20424;-65
2022/01/23 04:07:53;;;;;;;14.27;10.13;;;5.70;1.00;;;;;;4991215;28;21829;-64
2022/01/23 04:10:27;;;;;;;15.40;10.03;;;5.80;1.00;;;;;;4991480;28;20205;-65
2022/01/23 04:13:15;;;;;;;16.00;9.83;;;5.80;1.00;;;;;;4989103;28;20209;-65
2022/01/23 04:32:09;;;;;;;18.17;10.50;;;6.10;99.90;;;;;;4986219;28;20208;-64
2022/01/23 04:45:36;;;;;;;18.07;11.17;;;6.10;1.00;;;;;;4988769;28;20197;-65
2022/01/23 05:04:44;;;;;;;15.70;10.43;;;6.40;1.00;;;;;;4972378;28;20542;-66
2022/01/23 05:07:30;;;;;;;10.87;9.30;;;6.40;1.00;;;;;;5010327;28;20293;-66
2022/01/23 05:10:18;;;;;;;13.20;9.00;;;6.20;1.00;;;;;;4996070;28;20270;-66
2022/01/23 05:12:52;;;;;;;13.77;9.77;;;6.40;1.00;;;;;;4990455;28;20215;-65
2022/01/23 05:15:21;;;;;;;10.27;8.67;;;6.30;1.00;;;;;;4990870;28;20240;-65
2022/01/23 05:17:50;;;;;;;10.93;8.30;;;6.20;1.00;;;;;;4992362;28;20560;-65
2022/01/23 05:20:20;;;;;;;16.07;10.67;;;6.30;1.00;;;;;;4977042;28;20270;-66
2022/01/23 05:22:53;;;;;;;13.67;9.47;;;6.40;1.00;;;;;;4993101;28;20216;-65
2022/01/23 05:25:27;;;;;;;13.07;9.93;;;6.30;1.00;;;;;;4988975;28;20232;-66
2022/01/23 05:27:56;;;;;;;12.93;10.03;;;6.30;1.00;;;;;;4989326;28;20251;-66
2022/01/23 05:30:24;;;;;;;14.77;9.40;;;6.20;1.00;;;;;;4991003;28;20355;-65
2022/01/23 05:32:57;;;;;;;13.20;9.73;;;6.20;1.00;;;;;;4987811;28;20262;-65
2022/01/23 05:35:27;;;;;;;14.27;8.73;;;6.10;1.00;;;;;;4985582;28;20197;-65
2022/01/23 05:37:58;;;;;;;14.43;8.47;;;6.20;1.00;;;;;;4988681;28;20227;-63
2022/01/23 05:40:29;;;;;;;13.60;10.43;;;6.30;1.00;;;;;;4983917;28;20204;-64
2022/01/23 05:42:59;;;;;;;15.73;9.90;;;6.30;1.00;;;;;;4991960;28;20212;-65
2022/01/23 05:45:34;;;;;;;11.90;8.20;;;6.30;1.00;;;;;;4989998;28;20194;-64
2022/01/23 05:48:09;;;;;;;13.17;9.43;;;6.40;1.00;;;;;;5007512;28;20206;-65
2022/01/23 05:50:51;;;;;;;13.67;10.57;;;6.50;1.00;;;;;;5006690;28;20200;-66
2022/01/23 05:53:29;;;;;;;12.73;10.43;;;6.60;1.00;;;;;;4988037;28;20203;-66
2022/01/23 05:56:16;;;;;;;12.10;9.63;;;6.50;1.00;;;;;;4992526;28;20733;-66
2022/01/23 05:59:12;;;;;;;15.07;10.63;;;6.40;1.00;;;;;;4989198;28;20197;-65
2022/01/23 06:01:44;;;;;;;14.97;10.13;;;6.50;1.00;;;;;;4985264;28;20207;-64
2022/01/23 06:04:15;;;;;;;11.63;9.13;;;6.50;1.00;;;;;;4991093;28;20212;-65
2022/01/23 06:07:03;;;;;;;15.30;10.63;;;6.50;1.00;;;;;;4998655;28;20205;-65
2022/01/23 06:09:30;;;;;;;15.97;10.43;;;6.50;1.00;;;;;;4990807;28;20217;-65
2022/01/23 06:11:57;;;;;;;16.53;10.40;;;6.50;1.00;;;;;;4981872;28;20256;-65
2022/01/23 06:14:26;;;;;;;15.57;11.60;;;6.50;1.00;;;;;;4993554;28;20249;-65
2022/01/23 06:16:56;;;;;;;11.43;8.90;;;6.50;1.00;;;;;;4994263;28;20188;-65
2022/01/23 06:19:55;;;;;;;15.73;12.37;;;6.60;1.00;;;;;;4965689;28;20664;-66
2022/01/23 06:22:46;;;;;;;11.37;8.93;;;6.70;1.00;;;;;;4993918;28;20207;-65
2022/01/23 06:25:45;;;;;;;18.93;12.20;;;6.70;99.90;;;;;;4994382;28;20646;-66
2022/01/23 06:28:34;;;;;;;15.90;12.17;;;6.70;99.90;;;;;;4993411;28;20197;-65
2022/01/23 06:31:01;;;;;;;13.47;10.57;;;6.50;99.90;;;;;;4992545;28;20197;-65
2022/01/23 06:33:30;;;;;;;15.60;10.70;;;6.50;1.00;;;;;;4995969;28;20197;-65
2022/01/23 06:35:59;;;;;;;17.97;12.00;;;6.60;1.00;;;;;;4995496;28;20263;-65
2022/01/23 06:38:26;;;;;;;17.10;12.53;;;6.40;99.90;;;;;;4992991;28;20607;-66
2022/01/23 06:40:53;;;;;;;14.70;11.77;;;6.30;99.90;;;;;;4989350;28;20244;-65
2022/01/23 06:43:42;;;;;;;16.40;11.40;;;6.20;1.00;;;;;;4988131;28;20279;-63
2022/01/23 06:46:17;;;;;;;17.10;12.47;;;6.30;1.00;;;;;;4992330;28;20207;-66
2022/01/23 06:48:44;;;;;;;22.27;15.07;;;6.20;1.00;;;;;;4976153;28;20200;-63
2022/01/23 06:51:13;;;;;;;16.17;12.60;;;6.20;1.00;;;;;;4992754;28;20217;-65
2022/01/23 06:53:40;;;;;;;20.30;14.80;;;6.20;1.00;;;;;;4976218;28;20520;-67
2022/01/23 06:56:09;;;;;;;23.30;14.93;;;6.30;1.00;;;;;;4979351;28;20209;-64
2022/01/23 06:58:37;;;;;;;21.43;14.20;;;6.20;1.00;;;;;;4993637;28;20227;-64
2022/01/23 07:01:07;;;;;;;21.97;15.23;;;6.10;1.00;;;;;;4991986;28;21562;-66
2022/01/23 07:03:58;;;;;;;20.63;15.57;;;6.10;1.00;;;;;;4988952;28;20213;-64
2022/01/23 07:06:28;;;;;;;24.13;15.90;;;6.10;1.00;;;;;;5006262;28;20585;-66
2022/01/23 07:09:26;;;;;;;23.67;16.97;;;6.00;1.00;;;;;;4997208;28;20219;-64
2022/01/23 07:12:19;;;;;;;29.43;19.33;;;5.90;1.00;;;;;;4996176;28;20201;-64
2022/01/23 07:15:05;;;;;;;28.37;20.40;;;6.00;1.00;;;;;;4994738;28;20239;-63
2022/01/23 07:17:55;;;;;;;23.80;14.60;;;6.00;1.00;;;;;;4990079;28;20201;-64
2022/01/23 07:20:24;;;;;;;22.47;14.87;;;6.20;99.90;;;;;;4993827;28;20231;-63
2022/01/23 07:22:56;;;;;;;22.97;16.03;;;6.20;1.00;;;;;;4976377;28;20202;-63
2022/01/23 07:25:23;;;;;;;18.50;12.70;;;6.30;1.00;;;;;;4988854;28;20239;-65
2022/01/23 07:27:56;;;;;;;20.90;14.70;;;6.30;1.00;;;;;;4992462;28;20200;-65
2022/01/23 07:32:54;;;;;;;23.57;15.87;;;6.30;1.00;;;;;;5008789;28;20201;-65
2022/01/23 07:35:24;;;;;;;23.57;16.03;;;6.20;1.00;;;;;;5009978;28;20196;-65
2022/01/23 07:37:51;;;;;;;20.27;13.97;;;6.10;1.00;;;;;;4974314;28;20212;-66
2022/01/23 07:40:37;;;;;;;22.03;15.67;;;6.20;1.00;;;;;;4994582;28;20189;-67
2022/01/23 07:43:12;;;;;;;25.40;16.27;;;6.20;1.00;;;;;;5006450;28;20191;-65
2022/01/23 07:45:47;;;;;;;19.03;13.73;;;6.20;1.00;;;;;;4994820;28;20254;-67
2022/01/23 07:48:40;;;;;;;23.33;16.53;;;6.30;1.00;;;;;;4997529;28;20300;-65
2022/01/23 07:51:30;;;;;;;23.50;16.77;;;6.20;1.00;;;;;;4993446;28;20217;-64
2022/01/23 07:54:16;;;;;;;22.67;15.70;;;6.30;1.00;;;;;;4973865;28;20716;-65
2022/01/23 07:56:54;;;;;;;24.10;17.27;;;6.30;1.00;;;;;;4993640;28;20621;-64
2022/01/23 07:59:46;;;;;;;25.27;16.83;;;6.30;1.00;;;;;;4995357;28;20209;-63
2022/01/23 08:02:24;;;;;;;25.87;22.07;;;6.30;1.00;;;;;;4993220;28;20196;-66
2022/01/23 08:05:26;;;;;;;29.37;18.47;;;6.20;1.00;;;;;;4985273;28;20283;-66
2022/01/23 08:08:16;;;;;;;27.03;17.73;;;6.10;1.00;;;;;;4974982;28;20208;-65
2022/01/23 08:10:56;;;;;;;25.83;16.77;;;6.20;1.00;;;;;;4995245;28;20220;-66
2022/01/23 08:13:23;;;;;;;25.50;16.63;;;6.20;1.00;;;;;;4991037;28;20208;-65
2022/01/23 08:15:50;;;;;;;21.13;15.30;;;6.30;1.00;;;;;;4975880;28;20264;-64
2022/01/23 08:18:17;;;;;;;24.10;15.73;;;6.50;1.00;;;;;;4991574;28;20687;-64
2022/01/23 08:20:46;;;;;;;24.77;17.30;;;6.80;1.00;;;;;;4976841;28;20205;-64
2022/01/23 08:23:21;;;;;;;23.27;15.03;;;6.70;1.00;;;;;;4990684;28;20212;-66
2022/01/23 08:25:49;;;;;;;19.23;12.77;;;6.60;1.00;;;;;;5010065;28;20275;-64
2022/01/23 08:28:19;;;;;;;27.77;18.57;;;6.80;1.00;;;;;;5007687;28;20276;-65
2022/01/23 08:30:48;;;;;;;27.67;19.27;;;6.70;99.90;;;;;;4995149;28;20740;-65
2022/01/23 08:33:15;;;;;;;22.63;14.13;;;6.70;99.90;;;;;;5007957;28;20184;-65
2022/01/23 08:35:45;;;;;;;26.63;15.57;;;6.70;1.00;;;;;;4999445;28;20224;-67
2022/01/23 08:38:16;;;;;;;24.40;17.23;;;6.90;1.00;;;;;;4988069;28;20201;-68
2022/01/23 08:43:14;;;;;;;24.50;18.07;;;6.80;99.90;;;;;;4992262;28;20201;-65
2022/01/23 08:45:41;;;;;;;23.50;17.03;;;7.00;99.90;;;;;;4991544;28;20283;-65
2022/01/23 08:48:09;;;;;;;19.90;14.50;;;7.00;99.90;;;;;;4986015;28;20265;-65
2022/01/23 08:50:40;;;;;;;14.97;11.30;;;7.10;99.90;;;;;;4975404;28;20561;-63
2022/01/23 08:53:08;;;;;;;18.67;13.60;;;7.50;99.90;;;;;;5006487;28;20206;-64
2022/01/23 08:55:36;;;;;;;17.60;13.40;;;7.80;99.90;;;;;;5007647;28;20204;-65
2022/01/23 08:58:03;;;;;;;17.53;13.43;;;7.90;1.00;;;;;;4992050;28;20251;-63
2022/01/23 09:00:30;;;;;;;21.50;15.30;;;8.10;1.00;;;;;;5009103;28;20201;-63
2022/01/23 09:02:57;;;;;;;18.03;13.50;;;8.10;1.00;;;;;;5008821;28;20250;-65
2022/01/23 09:05:26;;;;;;;15.10;11.60;;;8.10;1.00;;;;;;4971222;28;20683;-65
2022/01/23 09:07:57;;;;;;;20.93;15.00;;;8.20;1.00;;;;;;4991153;28;20946;-65
2022/01/23 09:10:29;;;;;;;15.17;10.93;;;8.40;1.00;;;;;;4991056;28;20208;-64
2022/01/23 09:13:07;;;;;;;16.47;11.67;;;8.40;1.00;;;;;;4990139;28;20267;-66
2022/01/23 09:15:34;;;;;;;16.13;12.17;;;8.90;1.00;;;;;;5010126;28;20271;-63
2022/01/23 09:18:03;;;;;;;22.67;14.53;;;9.20;99.90;;;;;;5002962;28;20292;-66
2022/01/23 09:20:31;;;;;;;13.07;9.57;;;9.40;99.90;;;;;;5002146;28;20292;-66
2022/01/23 09:22:58;;;;;;;17.23;12.80;;;9.20;99.90;;;;;;5005927;28;20205;-65
2022/01/23 09:25:25;;;;;;;18.03;14.47;;;9.40;99.90;;;;;;4990210;28;20209;-66
2022/01/23 09:27:54;;;;;;;17.33;13.27;;;9.10;99.90;;;;;;4985375;28;20209;-64
2022/01/23 09:30:23;;;;;;;21.93;15.87;;;8.90;1.00;;;;;;4972417;28;20208;-65
2022/01/23 09:32:51;;;;;;;35.73;22.33;;;9.00;99.90;;;;;;5000807;28;20288;-66
2022/01/23 09:35:18;;;;;;;28.77;20.07;;;9.10;99.90;;;;;;5001177;28;20247;-66
2022/01/23 09:37:47;;;;;;;22.60;17.07;;;9.00;99.90;;;;;;5008511;28;20277;-66
2022/01/23 09:40:14;;;;;;;18.93;13.90;;;8.80;99.90;;;;;;5005321;28;20220;-64
2022/01/23 09:42:58;;;;;;;22.53;13.03;;;8.70;99.90;;;;;;5001674;28;20288;-66
2022/01/23 09:45:27;;;;;;;22.13;13.13;;;8.80;1.00;;;;;;4975179;28;20255;-66
2022/01/23 09:47:59;;;;;;;19.83;14.70;;;8.60;99.90;;;;;;5003622;28;20288;-66
2022/01/23 09:50:28;;;;;;;18.33;14.50;;;8.50;99.90;;;;;;5004147;28;20309;-65
2022/01/23 09:52:56;;;;;;;19.83;14.60;;;8.40;99.90;;;;;;5003943;28;20188;-66
2022/01/23 09:55:26;;;;;;;19.23;14.83;;;8.40;1.00;;;;;;4983255;28;20220;-65
2022/01/23 09:57:54;;;;;;;19.77;14.33;;;8.50;99.90;;;;;;4993359;28;20207;-65
2022/01/23 10:00:24;;;;;;;22.80;17.00;;;8.40;1.00;;;;;;4990671;28;20599;-65
2022/01/23 10:02:54;;;;;;;22.40;16.17;;;8.30;1.00;;;;;;4994877;28;20205;-66
2022/01/23 10:05:22;;;;;;;21.90;15.53;;;8.30;1.00;;;;;;4990662;28;20774;-65
2022/01/23 10:07:50;;;;;;;22.00;14.87;;;8.30;99.90;;;;;;5006350;28;20295;-66
2022/01/23 10:10:23;;;;;;;19.07;14.27;;;8.30;99.90;;;;;;5007736;28;20255;-67
2022/01/23 10:12:51;;;;;;;21.17;15.47;;;8.30;99.90;;;;;;4988816;28;20797;-66
2022/01/23 10:15:22;;;;;;;19.20;14.50;;;8.40;99.90;;;;;;4990753;28;20225;-66
2022/01/23 10:17:52;;;;;;;23.63;17.33;;;8.20;99.90;;;;;;4989942;28;20225;-66
2022/01/23 10:20:25;;;;;;;25.50;18.17;;;8.10;99.90;;;;;;4990438;28;20209;-66
2022/01/23 10:22:56;;;;;;;64.03;48.30;;;8.00;99.90;;;;;;4991320;28;20273;-64
2022/01/23 10:25:28;;;;;;;27.17;18.43;;;7.70;1.00;;;;;;4987875;28;20209;-64
2022/01/23 10:28:07;;;;;;;24.47;18.63;;;7.60;1.00;;;;;;4991164;28;20201;-67
2022/01/23 10:30:42;;;;;;;21.00;15.43;;;7.70;1.00;;;;;;4991112;28;20209;-65
2022/01/23 10:33:14;;;;;;;26.20;19.00;;;8.00;1.00;;;;;;4973974;28;20856;-65
2022/01/23 10:36:02;;;;;;;25.10;18.33;;;8.10;1.00;;;;;;4990073;28;20229;-66
2022/01/23 10:38:29;;;;;;;23.43;17.90;;;8.10;1.00;;;;;;4970222;28;20229;-64
2022/01/23 10:42:11;;;;;;;29.93;22.43;;;8.40;1.00;;;;;;4992784;28;20272;-65
2022/01/23 10:50:07;;;;;;;19.03;14.17;;;8.80;99.90;;;;;;4998036;28;20205;-65
2022/01/23 10:52:48;;;;;;;28.80;18.00;;;8.60;99.90;;;;;;4986231;28;20248;-64
2022/01/23 10:55:26;;;;;;;22.07;16.10;;;8.00;99.90;;;;;;5004457;28;20288;-65
2022/01/23 10:58:02;;;;;;;21.47;15.47;;;8.00;99.90;;;;;;4982114;28;20238;-67
2022/01/23 11:00:38;;;;;;;20.27;15.53;;;8.20;1.00;;;;;;4984479;28;20252;-66
2022/01/23 11:03:26;;;;;;;23.07;16.07;;;8.40;99.90;;;;;;4975361;28;20220;-65
2022/01/23 11:05:55;;;;;;;22.77;15.20;;;8.50;99.90;;;;;;4975558;28;20209;-65
2022/01/23 11:08:33;;;;;;;21.20;15.13;;;8.60;99.90;;;;;;4986673;28;20236;-64
2022/01/23 11:11:08;;;;;;;22.43;16.50;;;8.80;99.90;;;;;;5000169;28;20320;-63
2022/01/23 11:19:30;;;;;;;20.37;14.60;;;8.70;99.90;;;;;;4988659;28;20292;-65
2022/01/23 11:21:59;;;;;;;21.43;14.73;;;8.80;93.80;;;;;;4998195;28;20755;-65
2022/01/23 11:24:42;;;;;;;20.10;14.30;;;8.60;99.90;;;;;;4992638;28;20217;-65
2022/01/23 11:27:13;;;;;;;20.70;13.93;;;8.70;92.10;;;;;;4990863;28;20215;-64
2022/01/23 11:30:06;;;;;;;20.57;14.63;;;8.70;93.40;;;;;;4991178;28;21027;-64
2022/01/23 11:32:40;;;;;;;22.83;14.97;;;8.80;99.90;;;;;;5010203;28;20193;-65
2022/01/23 11:35:10;;;;;;;22.60;16.23;;;9.00;1.00;;;;;;5002421;28;20193;-64
2022/01/23 11:37:48;;;;;;;26.57;20.73;;;8.80;1.00;;;;;;4976804;28;20262;-62
2022/01/23 11:50:34;;;;;;;28.70;19.17;;;8.80;1.00;;;;;;5011995;28;20232;-64
2022/01/23 11:54:46;;;;;;;20.03;14.13;;;9.10;1.00;;;;;;5012937;28;20199;-64
2022/01/23 11:57:35;;;;;;;18.23;13.60;;;9.30;1.00;;;;;;5011352;28;20975;-65
2022/01/23 12:00:30;;;;;;;19.10;14.50;;;9.30;1.00;;;;;;5012787;28;20280;-64
2022/01/23 12:03:14;;;;;;;17.63;13.80;;;9.60;1.00;;;;;;4995385;28;20275;-64
2022/01/23 12:06:04;;;;;;;14.43;11.70;;;9.60;1.00;;;;;;4979316;28;20228;-65
2022/01/23 12:08:35;;;;;;;16.73;14.13;;;9.60;1.00;;;;;;5010839;28;20267;-64
2022/01/23 12:12:04;;;;;;;24.57;17.40;;;9.70;1.00;;;;;;5011672;28;20241;-65
2022/01/23 12:16:24;;;;;;;39.00;19.83;;;9.80;1.00;;;;;;4989238;28;20263;-64
2022/01/23 12:17:26;;;;;;;25.70;15.30;;;9.80;1.00;;;;;;4991396;28;20232;-65
2022/01/23 12:19:58;;;;;;;17.90;15.50;;;9.80;1.00;;;;;;5007675;28;20247;-64
2022/01/23 12:22:25;;;;;;;14.73;11.10;;;9.80;1.00;;;;;;5005433;28;20579;-65
2022/01/23 12:24:55;;;;;;;13.23;10.00;;;9.80;1.00;;;;;;4993002;28;20291;-63
2022/01/23 12:27:28;;;;;;;12.37;8.40;;;9.80;1.00;;;;;;5010661;28;20284;-65
2022/01/23 12:30:10;;;;;;;13.77;9.33;;;9.70;1.00;;;;;;5010161;28;20605;-65
2022/01/23 12:32:41;;;;;;;10.37;7.40;;;9.70;1.00;;;;;;4992169;28;20231;-63
2022/01/23 12:35:10;;;;;;;9.10;7.37;;;9.60;1.00;;;;;;5010810;28;20348;-63
2022/01/23 12:37:56;;;;;;;11.37;7.97;;;9.40;99.90;;;;;;4990397;28;20959;-64
2022/01/23 12:40:31;;;;;;;12.60;8.50;;;9.30;1.00;;;;;;4994754;28;20197;-65
2022/01/23 12:43:09;;;;;;;13.03;9.83;;;9.20;1.00;;;;;;5009289;28;20204;-64
2022/01/23 12:45:59;;;;;;;12.07;8.10;;;9.10;1.00;;;;;;4993403;28;20219;-65
2022/01/23 12:48:26;;;;;;;8.77;6.33;;;9.10;99.90;;;;;;4993512;28;20209;-65
2022/01/23 12:51:00;;;;;;;9.10;6.93;;;9.00;1.00;;;;;;4994682;28;20209;-65
2022/01/23 12:53:36;;;;;;;8.70;6.80;;;9.20;1.00;;;;;;4987915;28;20263;-65
2022/01/23 12:56:12;;;;;;;9.37;6.83;;;9.60;1.00;;;;;;4994241;28;20293;-64
2022/01/23 12:58:42;;;;;;;13.17;10.27;;;9.80;99.90;;;;;;4993022;28;20219;-63
2022/01/23 13:01:27;;;;;;;8.53;5.73;;;9.60;1.00;;;;;;4993132;28;20193;-66
2022/01/23 13:04:00;;;;;;;8.50;6.03;;;9.50;1.00;;;;;;5011640;28;20707;-63
2022/01/23 13:06:32;;;;;;;6.17;4.83;;;9.40;99.90;;;;;;4993075;28;20215;-64
2022/01/23 13:15:14;;;;;;;8.17;6.43;;;9.10;1.00;;;;;;4994690;28;20240;-64
2022/01/23 13:31:57;;;;;;;8.77;6.67;;;8.50;1.00;;;;;;4993124;28;20217;-62
2022/01/23 13:34:30;;;;;;;7.17;5.13;;;8.40;1.00;;;;;;4992469;28;20260;-64
2022/01/23 13:37:06;;;;;;;6.80;5.10;;;8.20;99.90;;;;;;5010262;28;20199;-64
2022/01/23 13:39:37;;;;;;;6.67;4.97;;;8.10;99.90;;;;;;5009643;28;20459;-65
2022/01/23 13:42:25;;;;;;;8.57;5.20;;;8.10;1.00;;;;;;4993223;28;20888;-63
2022/01/23 13:53:48;;;;;;;7.43;5.50;;;8.10;1.00;;;;;;4988749;28;20245;-64
2022/01/23 13:59:43;;;;;;;11.17;9.30;;;8.00;1.00;;;;;;5008772;28;20234;-64
2022/01/23 14:04:48;;;;;;;7.80;5.60;;;8.00;1.00;;;;;;5007378;28;20201;-64
2022/01/23 14:07:26;;;;;;;8.43;6.47;;;8.00;1.00;;;;;;4974741;28;20228;-64
2022/01/23 14:10:08;;;;;;;45.87;20.53;;;8.10;1.00;;;;;;4992716;28;20208;-64
2022/01/23 14:12:35;;;;;;;58.63;27.03;;;8.10;1.00;;;;;;4990777;28;20672;-65
2022/01/23 14:15:20;;;;;;;32.53;18.03;;;8.20;1.00;;;;;;4991137;28;20241;-64
2022/01/23 14:18:07;;;;;;;9.73;7.20;;;8.10;1.00;;;;;;4973238;28;20232;-64
2022/01/23 14:20:41;;;;;;;14.97;12.67;;;8.10;1.00;;;;;;4983133;28;20324;-66
2022/01/23 14:23:16;;;;;;;13.53;11.63;;;8.10;1.00;;;;;;4981832;28;20241;-64
2022/01/23 14:25:58;;;;;;;8.57;7.60;;;8.10;1.00;;;;;;4985637;28;20209;-64
2022/01/23 14:28:39;;;;;;;6.37;5.20;;;8.10;1.00;;;;;;4989668;28;20222;-64
2022/01/23 14:31:16;;;;;;;8.43;5.10;;;8.10;1.00;;;;;;4987365;28;20225;-65
2022/01/23 14:33:44;;;;;;;7.93;5.33;;;8.10;1.00;;;;;;4986432;28;20229;-63
2022/01/23 14:36:35;;;;;;;8.20;5.63;;;7.90;1.00;;;;;;4976262;28;20201;-62
2022/01/23 14:39:06;;;;;;;8.47;6.60;;;7.80;1.00;;;;;;4990938;28;20251;-63
2022/01/23 14:41:39;;;;;;;10.40;6.40;;;7.80;1.00;;;;;;4992337;28;20217;-63
2022/01/23 14:44:21;;;;;;;13.33;9.20;;;7.80;1.00;;;;;;4993197;28;20221;-62
2022/01/23 14:46:51;;;;;;;9.03;5.73;;;7.80;1.00;;;;;;4991430;28;20209;-63
2022/01/23 14:49:27;;;;;;;7.40;5.40;;;7.90;1.00;;;;;;4988977;28;20256;-64
2022/01/23 14:51:57;;;;;;;9.40;7.20;;;7.80;1.00;;;;;;4990238;28;20308;-63
2022/01/23 14:54:25;;;;;;;10.03;7.77;;;7.70;1.00;;;;;;4990812;28;20221;-63
2022/01/23 14:57:01;;;;;;;10.27;7.23;;;7.60;1.00;;;;;;4993142;28;20674;-63
2022/01/23 14:59:31;;;;;;;12.40;8.10;;;7.60;1.00;;;;;;4992118;28;20284;-63
2022/01/23 15:01:59;;;;;;;48.20;24.27;;;7.50;1.00;;;;;;4974815;28;20245;-63
2022/01/23 15:13:30;;;;;;;16.37;12.50;;;7.30;1.00;;;;;;4992770;28;20200;-63
2022/01/23 15:15:58;;;;;;;12.80;9.87;;;7.20;91.70;;;;;;4973679;28;20230;-65
2022/01/23 15:18:28;;;;;;;10.77;7.70;;;7.20;97.50;;;;;;4960144;28;20240;-63
2022/01/23 15:20:55;;;;;;;12.07;8.33;;;7.20;13.80;;;;;;4989492;28;20213;-63
2022/01/23 15:23:22;;;;;;;12.80;8.60;;;7.20;59.00;;;;;;4967915;28;20308;-63
2022/01/23 15:25:49;;;;;;;12.90;9.13;;;7.20;99.90;;;;;;4977584;28;20222;-65
2022/01/23 15:28:16;;;;;;;10.43;7.70;;;7.30;99.90;;;;;;4964631;28;20232;-65
2022/01/23 15:30:44;;;;;;;12.37;7.43;;;7.20;54.00;;;;;;4945142;28;20218;-65
2022/01/23 15:33:11;;;;;;;9.93;7.33;;;7.20;12.10;;;;;;4965603;28;20301;-65
2022/01/23 15:35:49;;;;;;;11.00;7.30;;;7.20;74.00;;;;;;4948246;28;20213;-65
2022/01/23 15:38:19;;;;;;;13.03;7.87;;;7.10;40.30;;;;;;4967294;28;20284;-65
2022/01/23 15:40:50;;;;;;;10.53;7.10;;;7.10;92.40;;;;;;4973521;28;20452;-65
2022/01/23 15:43:17;;;;;;;11.37;7.97;;;7.10;99.90;;;;;;4979035;28;21636;-67
2022/01/23 15:45:46;;;;;;;13.40;8.10;;;7.10;99.90;;;;;;4962043;28;20205;-67
2022/01/23 15:48:15;;;;;;;11.70;7.80;;;7.10;99.90;;;;;;4956750;28;20197;-65
2022/01/23 15:50:42;;;;;;;11.07;8.13;;;7.10;70.20;;;;;;4941313;28;20681;-65
2022/01/23 15:53:09;;;;;;;11.60;8.47;;;7.10;99.90;;;;;;4977241;28;20715;-65
2022/01/23 15:55:36;;;;;;;10.97;7.47;;;7.00;99.90;;;;;;4949031;28;20277;-65
2022/01/23 15:58:06;;;;;;;11.53;7.63;;;7.00;99.90;;;;;;4977962;28;20732;-65
2022/01/23 16:00:34;;;;;;;12.60;7.90;;;7.00;99.90;;;;;;4954940;28;20225;-67
2022/01/23 16:03:02;;;;;;;11.63;8.00;;;7.00;99.90;;;;;;4939232;28;20206;-65
2022/01/23 16:05:29;;;;;;;13.27;8.63;;;7.00;99.90;;;;;;4963058;28;20206;-65
2022/01/23 16:07:56;;;;;;;30.93;19.67;;;7.00;99.90;;;;;;4956540;28;20692;-65
2022/01/23 16:10:23;;;;;;;37.13;19.90;;;7.00;99.90;;;;;;4946773;28;20212;-65
2022/01/23 16:12:55;;;;;;;13.30;9.97;;;7.00;99.90;;;;;;4971212;28;20595;-65
2022/01/23 16:15:22;;;;;;;19.60;12.07;;;6.90;99.90;;;;;;4975307;28;20262;-65
2022/01/23 16:17:53;;;;;;;15.40;10.53;;;6.90;99.90;;;;;;4961524;28;20206;-65
2022/01/23 16:20:20;;;;;;;17.07;10.53;;;6.90;99.90;;;;;;4966119;28;20225;-65
2022/01/23 16:22:48;;;;;;;14.40;9.80;;;6.90;99.90;;;;;;4981497;28;20198;-65
2022/01/23 16:25:18;;;;;;;11.97;8.03;;;6.90;99.90;;;;;;4966799;28;20209;-65
2022/01/23 16:27:45;;;;;;;13.40;9.43;;;6.80;99.90;;;;;;4953467;28;20244;-66
2022/01/23 16:30:20;;;;;;;13.47;9.47;;;6.80;99.90;;;;;;4984862;28;20201;-65
2022/01/23 16:32:56;;;;;;;16.30;9.30;;;6.80;99.90;;;;;;4989608;28;20228;-65
2022/01/23 16:35:27;;;;;;;14.77;9.63;;;6.90;99.90;;;;;;5001114;28;20198;-65
2022/01/23 16:37:56;;;;;;;14.50;8.53;;;6.80;99.90;;;;;;4953598;28;20212;-65
2022/01/23 16:40:24;;;;;;;14.43;9.43;;;6.80;99.90;;;;;;4965949;28;20202;-65
2022/01/23 16:42:53;;;;;;;114.60;73.47;;;6.80;99.90;;;;;;4982907;28;20210;-66
2022/01/23 16:45:21;;;;;;;120.17;66.87;;;6.80;99.90;;;;;;4969205;28;20230;-66
2022/01/23 16:47:49;;;;;;;131.33;71.23;;;6.70;99.90;;;;;;4970787;28;20210;-65